Terminal Aerodrome Forecast
Issued by NWS

Home | Current Version | Previous Version | Text Only | Print | Product List | Glossary On
Versions: 1 2 3 4 5 6 7 8 9 10 11 12 13 14 15 16 17 18 19
269
FTUS45 KRIW 212333
TAFJAC
TAF
KJAC 212333Z 2200/2224 21016G26KT 1 1/2SM -SN OVC012
      TEMPO 2200/2202 3/4SM -SN BKN008
     FM220300 21014G20KT 3SM -SN OVC020
     FM220600 20012KT P6SM VCSH SCT025 OVC040
      AMD LTD TO CLD VIS AND WIND=

USA.gov is the U.S. government's official web portal to all federal, state and local government web resources and services.